Terminal Aerodrome Forecast
Issued by NWS Chicago, IL

Home | Current Version | Previous Version | Graphics & Text | Print | Product List | Glossary On
Versions: 1 2 3 4 5 6 7 8 9 10 11 12 13 14 15 16 17 18 19 20 21 22 23 24
000
FTUS43 KLOT 271924 AAB
TAFRFD
TAF AMD
KRFD 271924Z 2719/2818 17013G20KT P6SM VCSH BKN040 BKN100
      TEMPO 2720/2723 3SM -TSRA BKN040CB BKN100
     FM280000 18009KT P6SM SCT020 OVC030
     FM280800 17010KT 6SM BR OVC010
     FM281500 20013KT P6SM VCSH BKN040=

USA.gov is the U.S. government's official web portal to all federal, state and local government web resources and services.